sensor_id;sensor_type;location;lat;lon;timestamp;P1;durP1;ratioP1;P2;durP2;ratioP2
14369;SDS011;7268;50.792;0.252;2023-05-07T00:01:22;6.35;;;2.92;;
14369;SDS011;7268;50.792;0.252;2023-05-07T00:03:53;6.65;;;4.93;;
14369;SDS011;7268;50.792;0.252;2023-05-07T00:06:25;9.63;;;3.47;;
14369;SDS011;7268;50.792;0.252;2023-05-07T00:08:58;11.02;;;5.50;;
14369;SDS011;7268;50.792;0.252;2023-05-07T00:11:26;8.20;;;2.70;;
14369;SDS011;7268;50.792;0.252;2023-05-07T00:13:54;9.63;;;5.15;;
14369;SDS011;7268;50.792;0.252;2023-05-07T00:16:27;9.43;;;4.10;;
14369;SDS011;7268;50.792;0.252;2023-05-07T00:19:04;6.82;;;3.97;;
14369;SDS011;7268;50.792;0.252;2023-05-07T00:21:32;10.95;;;5.18;;
14369;SDS011;7268;50.792;0.252;2023-05-07T00:24:00;10.82;;;5.25;;
14369;SDS011;7268;50.792;0.252;2023-05-07T00:26:28;8.48;;;4.10;;
14369;SDS011;7268;50.792;0.252;2023-05-07T00:28:55;12.07;;;6.30;;
14369;SDS011;7268;50.792;0.252;2023-05-07T00:31:22;9.00;;;5.55;;
14369;SDS011;7268;50.792;0.252;2023-05-07T00:33:49;8.70;;;5.47;;
14369;SDS011;7268;50.792;0.252;2023-05-07T00:36:20;9.93;;;4.75;;
14369;SDS011;7268;50.792;0.252;2023-05-07T00:38:50;9.13;;;5.60;;
14369;SDS011;7268;50.792;0.252;2023-05-07T00:41:23;6.72;;;3.67;;
14369;SDS011;7268;50.792;0.252;2023-05-07T00:43:50;10.95;;;5.50;;
14369;SDS011;7268;50.792;0.252;2023-05-07T00:46:20;8.32;;;4.18;;
14369;SDS011;7268;50.792;0.252;2023-05-07T00:48:54;9.52;;;4.82;;
14369;SDS011;7268;50.792;0.252;2023-05-07T00:51:29;9.57;;;5.65;;
14369;SDS011;7268;50.792;0.252;2023-05-07T00:53:57;7.95;;;5.10;;
14369;SDS011;7268;50.792;0.252;2023-05-07T00:56:27;11.85;;;6.22;;
14369;SDS011;7268;50.792;0.252;2023-05-07T00:58:54;12.75;;;6.28;;
14369;SDS011;7268;50.792;0.252;2023-05-07T01:01:26;10.52;;;4.72;;
14369;SDS011;7268;50.792;0.252;2023-05-07T01:03:54;11.95;;;5.75;;
14369;SDS011;7268;50.792;0.252;2023-05-07T01:06:23;11.50;;;6.25;;
14369;SDS011;7268;50.792;0.252;2023-05-07T01:08:53;15.02;;;5.78;;
14369;SDS011;7268;50.792;0.252;2023-05-07T01:11:23;17.85;;;4.47;;
14369;SDS011;7268;50.792;0.252;2023-05-07T01:13:50;7.30;;;4.45;;
14369;SDS011;7268;50.792;0.252;2023-05-07T01:16:18;13.80;;;6.03;;
14369;SDS011;7268;50.792;0.252;2023-05-07T01:18:49;10.93;;;4.15;;
14369;SDS011;7268;50.792;0.252;2023-05-07T01:21:16;8.68;;;3.38;;
14369;SDS011;7268;50.792;0.252;2023-05-07T01:23:44;11.82;;;6.28;;
14369;SDS011;7268;50.792;0.252;2023-05-07T01:26:16;11.70;;;5.97;;
14369;SDS011;7268;50.792;0.252;2023-05-07T01:28:51;13.55;;;6.45;;
14369;SDS011;7268;50.792;0.252;2023-05-07T01:31:18;16.52;;;6.80;;
14369;SDS011;7268;50.792;0.252;2023-05-07T01:33:46;12.27;;;6.13;;
14369;SDS011;7268;50.792;0.252;2023-05-07T01:36:15;13.55;;;4.40;;
14369;SDS011;7268;50.792;0.252;2023-05-07T01:38:44;10.75;;;3.92;;
14369;SDS011;7268;50.792;0.252;2023-05-07T01:41:16;15.65;;;6.47;;
14369;SDS011;7268;50.792;0.252;2023-05-07T01:43:43;14.55;;;6.38;;
14369;SDS011;7268;50.792;0.252;2023-05-07T01:46:14;14.57;;;5.95;;
14369;SDS011;7268;50.792;0.252;2023-05-07T01:48:45;11.52;;;5.18;;
14369;SDS011;7268;50.792;0.252;2023-05-07T01:51:30;12.75;;;5.75;;
14369;SDS011;7268;50.792;0.252;2023-05-07T01:54:02;15.07;;;6.60;;
14369;SDS011;7268;50.792;0.252;2023-05-07T01:56:31;11.98;;;5.20;;
14369;SDS011;7268;50.792;0.252;2023-05-07T01:58:58;17.40;;;7.53;;
14369;SDS011;7268;50.792;0.252;2023-05-07T02:01:27;16.55;;;7.65;;
14369;SDS011;7268;50.792;0.252;2023-05-07T02:03:54;12.98;;;4.45;;
14369;SDS011;7268;50.792;0.252;2023-05-07T02:06:30;19.80;;;8.52;;
14369;SDS011;7268;50.792;0.252;2023-05-07T02:09:10;17.75;;;7.50;;
14369;SDS011;7268;50.792;0.252;2023-05-07T02:11:47;14.98;;;6.10;;
14369;SDS011;7268;50.792;0.252;2023-05-07T02:14:22;13.32;;;5.45;;
14369;SDS011;7268;50.792;0.252;2023-05-07T02:16:51;13.23;;;3.28;;
14369;SDS011;7268;50.792;0.252;2023-05-07T02:19:24;15.32;;;5.97;;
14369;SDS011;7268;50.792;0.252;2023-05-07T02:21:54;11.60;;;5.72;;
14369;SDS011;7268;50.792;0.252;2023-05-07T02:24:26;12.18;;;4.32;;
14369;SDS011;7268;50.792;0.252;2023-05-07T02:27:00;9.68;;;3.92;;
14369;SDS011;7268;50.792;0.252;2023-05-07T02:29:29;12.90;;;4.07;;
14369;SDS011;7268;50.792;0.252;2023-05-07T02:32:00;8.30;;;4.55;;
14369;SDS011;7268;50.792;0.252;2023-05-07T02:34:31;11.02;;;5.68;;
14369;SDS011;7268;50.792;0.252;2023-05-07T02:37:03;11.45;;;4.80;;
14369;SDS011;7268;50.792;0.252;2023-05-07T02:39:33;13.52;;;3.85;;
14369;SDS011;7268;50.792;0.252;2023-05-07T02:42:01;12.95;;;3.08;;
14369;SDS011;7268;50.792;0.252;2023-05-07T02:47:00;10.25;;;2.85;;
14369;SDS011;7268;50.792;0.252;2023-05-07T02:49:27;9.52;;;4.28;;
14369;SDS011;7268;50.792;0.252;2023-05-07T02:51:59;8.68;;;4.43;;
14369;SDS011;7268;50.792;0.252;2023-05-07T02:54:27;7.75;;;2.15;;
14369;SDS011;7268;50.792;0.252;2023-05-07T02:56:54;12.32;;;5.07;;
14369;SDS011;7268;50.792;0.252;2023-05-07T02:59:27;8.60;;;4.03;;
14369;SDS011;7268;50.792;0.252;2023-05-07T03:01:59;5.43;;;2.05;;
14369;SDS011;7268;50.792;0.252;2023-05-07T03:04:29;7.70;;;4.55;;
14369;SDS011;7268;50.792;0.252;2023-05-07T03:06:56;10.07;;;4.53;;
14369;SDS011;7268;50.792;0.252;2023-05-07T03:09:24;6.97;;;4.47;;
14369;SDS011;7268;50.792;0.252;2023-05-07T03:11:55;4.20;;;1.15;;
14369;SDS011;7268;50.792;0.252;2023-05-07T03:14:26;5.70;;;2.00;;
14369;SDS011;7268;50.792;0.252;2023-05-07T03:17:03;6.97;;;2.75;;
14369;SDS011;7268;50.792;0.252;2023-05-07T03:22:35;7.82;;;1.77;;
14369;SDS011;7268;50.792;0.252;2023-05-07T03:25:23;6.80;;;3.10;;
14369;SDS011;7268;50.792;0.252;2023-05-07T03:35:13;4.43;;;2.05;;
14369;SDS011;7268;50.792;0.252;2023-05-07T03:37:55;8.38;;;4.85;;
14369;SDS011;7268;50.792;0.252;2023-05-07T03:43:24;3.55;;;1.15;;
14369;SDS011;7268;50.792;0.252;2023-05-07T03:52:38;7.55;;;2.40;;
14369;SDS011;7268;50.792;0.252;2023-05-07T03:55:13;4.75;;;3.00;;
14369;SDS011;7268;50.792;0.252;2023-05-07T03:57:50;4.78;;;1.33;;
14369;SDS011;7268;50.792;0.252;2023-05-07T04:04:27;3.90;;;2.22;;
14369;SDS011;7268;50.792;0.252;2023-05-07T04:07:05;4.38;;;2.33;;
14369;SDS011;7268;50.792;0.252;2023-05-07T04:09:34;3.72;;;2.78;;
14369;SDS011;7268;50.792;0.252;2023-05-07T04:14:37;2.72;;;2.10;;
14369;SDS011;7268;50.792;0.252;2023-05-07T04:17:04;4.18;;;2.60;;
14369;SDS011;7268;50.792;0.252;2023-05-07T04:19:35;2.75;;;1.02;;
14369;SDS011;7268;50.792;0.252;2023-05-07T04:22:04;2.60;;;0.98;;
14369;SDS011;7268;50.792;0.252;2023-05-07T04:24:32;2.53;;;0.70;;
14369;SDS011;7268;50.792;0.252;2023-05-07T04:27:09;3.92;;;2.00;;
14369;SDS011;7268;50.792;0.252;2023-05-07T04:29:39;3.20;;;1.02;;
14369;SDS011;7268;50.792;0.252;2023-05-07T04:32:09;4.28;;;1.65;;
14369;SDS011;7268;50.792;0.252;2023-05-07T04:34:36;3.53;;;2.08;;
14369;SDS011;7268;50.792;0.252;2023-05-07T04:37:03;3.58;;;2.40;;
14369;SDS011;7268;50.792;0.252;2023-05-07T04:39:31;3.90;;;1.20;;
14369;SDS011;7268;50.792;0.252;2023-05-07T04:42:02;3.63;;;0.80;;
14369;SDS011;7268;50.792;0.252;2023-05-07T04:44:35;4.20;;;2.75;;
14369;SDS011;7268;50.792;0.252;2023-05-07T04:47:04;5.00;;;1.83;;
14369;SDS011;7268;50.792;0.252;2023-05-07T04:49:34;3.15;;;2.15;;
14369;SDS011;7268;50.792;0.252;2023-05-07T04:52:04;3.90;;;0.95;;
14369;SDS011;7268;50.792;0.252;2023-05-07T04:54:37;4.22;;;1.02;;
14369;SDS011;7268;50.792;0.252;2023-05-07T04:57:07;2.72;;;0.95;;
14369;SDS011;7268;50.792;0.252;2023-05-07T04:59:37;6.50;;;2.50;;
14369;SDS011;7268;50.792;0.252;2023-05-07T05:02:07;3.85;;;3.00;;
14369;SDS011;7268;50.792;0.252;2023-05-07T05:04:38;5.78;;;0.82;;
14369;SDS011;7268;50.792;0.252;2023-05-07T05:07:08;17.73;;;2.45;;
14369;SDS011;7268;50.792;0.252;2023-05-07T05:25:34;2.95;;;1.65;;
14369;SDS011;7268;50.792;0.252;2023-05-07T05:32:00;2.83;;;1.92;;
14369;SDS011;7268;50.792;0.252;2023-05-07T05:35:36;2.65;;;2.03;;
14369;SDS011;7268;50.792;0.252;2023-05-07T05:38:18;2.00;;;1.27;;
14369;SDS011;7268;50.792;0.252;2023-05-07T05:40:51;2.47;;;2.05;;
14369;SDS011;7268;50.792;0.252;2023-05-07T05:43:25;3.30;;;2.85;;
14369;SDS011;7268;50.792;0.252;2023-05-07T05:45:51;2.50;;;0.70;;
14369;SDS011;7268;50.792;0.252;2023-05-07T05:48:18;1.45;;;0.38;;
14369;SDS011;7268;50.792;0.252;2023-05-07T05:50:48;3.28;;;2.00;;
14369;SDS011;7268;50.792;0.252;2023-05-07T05:53:17;4.72;;;1.83;;
14369;SDS011;7268;50.792;0.252;2023-05-07T05:55:44;3.25;;;1.98;;
14369;SDS011;7268;50.792;0.252;2023-05-07T05:58:12;3.28;;;0.65;;
14369;SDS011;7268;50.792;0.252;2023-05-07T06:00:39;2.38;;;0.22;;
14369;SDS011;7268;50.792;0.252;2023-05-07T06:03:06;4.30;;;2.38;;
14369;SDS011;7268;50.792;0.252;2023-05-07T06:05:33;2.97;;;2.10;;
14369;SDS011;7268;50.792;0.252;2023-05-07T06:08:00;4.32;;;2.70;;
14369;SDS011;7268;50.792;0.252;2023-05-07T06:10:29;2.33;;;0.60;;
14369;SDS011;7268;50.792;0.252;2023-05-07T06:12:57;4.03;;;1.33;;
14369;SDS011;7268;50.792;0.252;2023-05-07T06:15:25;3.03;;;2.72;;
14369;SDS011;7268;50.792;0.252;2023-05-07T06:17:52;3.72;;;2.85;;
14369;SDS011;7268;50.792;0.252;2023-05-07T06:20:24;3.90;;;2.67;;
14369;SDS011;7268;50.792;0.252;2023-05-07T06:22:51;3.05;;;1.88;;
14369;SDS011;7268;50.792;0.252;2023-05-07T06:25:18;3.08;;;2.33;;
14369;SDS011;7268;50.792;0.252;2023-05-07T06:27:49;1.73;;;0.82;;
14369;SDS011;7268;50.792;0.252;2023-05-07T06:30:16;2.20;;;0.63;;
14369;SDS011;7268;50.792;0.252;2023-05-07T06:32:46;2.85;;;1.73;;
14369;SDS011;7268;50.792;0.252;2023-05-07T06:35:15;2.70;;;0.80;;
14369;SDS011;7268;50.792;0.252;2023-05-07T06:37:45;5.80;;;0.70;;
14369;SDS011;7268;50.792;0.252;2023-05-07T06:40:11;3.53;;;2.05;;
14369;SDS011;7268;50.792;0.252;2023-05-07T06:42:39;6.43;;;1.88;;
14369;SDS011;7268;50.792;0.252;2023-05-07T06:45:08;2.15;;;1.38;;
14369;SDS011;7268;50.792;0.252;2023-05-07T06:47:35;4.47;;;2.65;;
14369;SDS011;7268;50.792;0.252;2023-05-07T06:50:02;3.63;;;3.33;;
14369;SDS011;7268;50.792;0.252;2023-05-07T06:52:29;4.22;;;1.30;;
14369;SDS011;7268;50.792;0.252;2023-05-07T06:54:56;3.22;;;1.27;;
14369;SDS011;7268;50.792;0.252;2023-05-07T06:57:23;2.83;;;1.77;;
14369;SDS011;7268;50.792;0.252;2023-05-07T06:59:51;3.72;;;2.60;;
14369;SDS011;7268;50.792;0.252;2023-05-07T07:02:18;2.70;;;1.00;;
14369;SDS011;7268;50.792;0.252;2023-05-07T07:04:45;3.55;;;2.53;;
14369;SDS011;7268;50.792;0.252;2023-05-07T07:10:04;4.18;;;2.67;;
14369;SDS011;7268;50.792;0.252;2023-05-07T07:15:03;1.52;;;0.40;;
14369;SDS011;7268;50.792;0.252;2023-05-07T07:17:31;4.25;;;2.05;;
14369;SDS011;7268;50.792;0.252;2023-05-07T07:19:58;3.22;;;2.17;;
14369;SDS011;7268;50.792;0.252;2023-05-07T07:22:25;3.28;;;1.20;;
14369;SDS011;7268;50.792;0.252;2023-05-07T07:24:52;5.93;;;1.88;;
14369;SDS011;7268;50.792;0.252;2023-05-07T07:27:22;3.88;;;2.55;;
14369;SDS011;7268;50.792;0.252;2023-05-07T07:30:13;5.40;;;3.17;;
14369;SDS011;7268;50.792;0.252;2023-05-07T07:33:21;4.60;;;2.17;;
14369;SDS011;7268;50.792;0.252;2023-05-07T07:35:47;4.10;;;1.85;;
14369;SDS011;7268;50.792;0.252;2023-05-07T07:38:14;4.45;;;1.42;;
14369;SDS011;7268;50.792;0.252;2023-05-07T07:40:41;6.63;;;1.98;;
14369;SDS011;7268;50.792;0.252;2023-05-07T07:43:10;4.97;;;2.15;;
14369;SDS011;7268;50.792;0.252;2023-05-07T07:45:36;7.75;;;4.28;;
14369;SDS011;7268;50.792;0.252;2023-05-07T07:48:06;4.80;;;1.85;;
14369;SDS011;7268;50.792;0.252;2023-05-07T07:50:33;5.53;;;3.00;;
14369;SDS011;7268;50.792;0.252;2023-05-07T07:53:11;5.38;;;2.70;;
14369;SDS011;7268;50.792;0.252;2023-05-07T07:55:41;6.10;;;3.50;;
14369;SDS011;7268;50.792;0.252;2023-05-07T07:58:08;6.53;;;3.40;;
14369;SDS011;7268;50.792;0.252;2023-05-07T08:00:35;6.13;;;3.45;;
14369;SDS011;7268;50.792;0.252;2023-05-07T08:03:02;6.15;;;1.92;;
14369;SDS011;7268;50.792;0.252;2023-05-07T08:05:29;5.22;;;2.53;;
14369;SDS011;7268;50.792;0.252;2023-05-07T08:07:56;4.18;;;1.98;;
14369;SDS011;7268;50.792;0.252;2023-05-07T08:10:23;5.95;;;3.85;;
14369;SDS011;7268;50.792;0.252;2023-05-07T08:12:50;5.45;;;3.97;;
14369;SDS011;7268;50.792;0.252;2023-05-07T08:15:17;5.10;;;4.28;;
14369;SDS011;7268;50.792;0.252;2023-05-07T08:17:44;5.28;;;2.38;;
14369;SDS011;7268;50.792;0.252;2023-05-07T08:20:13;4.53;;;2.22;;
14369;SDS011;7268;50.792;0.252;2023-05-07T08:22:40;6.18;;;2.42;;
14369;SDS011;7268;50.792;0.252;2023-05-07T08:25:07;6.30;;;4.70;;
14369;SDS011;7268;50.792;0.252;2023-05-07T08:27:34;6.63;;;4.00;;
14369;SDS011;7268;50.792;0.252;2023-05-07T08:30:02;5.53;;;2.47;;
14369;SDS011;7268;50.792;0.252;2023-05-07T08:32:30;4.55;;;1.88;;
14369;SDS011;7268;50.792;0.252;2023-05-07T08:34:56;6.45;;;4.82;;
14369;SDS011;7268;50.792;0.252;2023-05-07T08:37:23;5.60;;;2.20;;
14369;SDS011;7268;50.792;0.252;2023-05-07T08:39:50;6.68;;;5.18;;
14369;SDS011;7268;50.792;0.252;2023-05-07T08:42:17;8.35;;;4.35;;
14369;SDS011;7268;50.792;0.252;2023-05-07T08:44:47;6.32;;;4.57;;
14369;SDS011;7268;50.792;0.252;2023-05-07T08:47:19;6.97;;;3.88;;
14369;SDS011;7268;50.792;0.252;2023-05-07T08:49:48;9.02;;;4.43;;
14369;SDS011;7268;50.792;0.252;2023-05-07T08:52:16;10.50;;;4.75;;
14369;SDS011;7268;50.792;0.252;2023-05-07T08:55:02;10.07;;;5.10;;
14369;SDS011;7268;50.792;0.252;2023-05-07T08:57:37;9.30;;;6.10;;
14369;SDS011;7268;50.792;0.252;2023-05-07T09:00:15;12.30;;;7.05;;
14369;SDS011;7268;50.792;0.252;2023-05-07T09:02:59;8.80;;;5.05;;
14369;SDS011;7268;50.792;0.252;2023-05-07T09:05:29;9.32;;;5.70;;
14369;SDS011;7268;50.792;0.252;2023-05-07T09:07:59;8.98;;;3.35;;
14369;SDS011;7268;50.792;0.252;2023-05-07T09:10:32;8.68;;;3.72;;
14369;SDS011;7268;50.792;0.252;2023-05-07T09:13:00;9.75;;;5.13;;
14369;SDS011;7268;50.792;0.252;2023-05-07T09:15:31;11.40;;;5.93;;
14369;SDS011;7268;50.792;0.252;2023-05-07T09:18:01;11.10;;;4.35;;
14369;SDS011;7268;50.792;0.252;2023-05-07T09:20:44;8.70;;;5.30;;
14369;SDS011;7268;50.792;0.252;2023-05-07T09:23:13;11.18;;;6.22;;
14369;SDS011;7268;50.792;0.252;2023-05-07T09:25:42;10.57;;;5.13;;
14369;SDS011;7268;50.792;0.252;2023-05-07T09:28:09;7.20;;;4.25;;
14369;SDS011;7268;50.792;0.252;2023-05-07T09:30:37;7.90;;;5.25;;
14369;SDS011;7268;50.792;0.252;2023-05-07T09:33:04;6.93;;;2.72;;
14369;SDS011;7268;50.792;0.252;2023-05-07T09:35:31;7.20;;;3.80;;
14369;SDS011;7268;50.792;0.252;2023-05-07T09:38:08;6.72;;;4.03;;
14369;SDS011;7268;50.792;0.252;2023-05-07T09:40:41;9.18;;;5.00;;
14369;SDS011;7268;50.792;0.252;2023-05-07T09:43:12;8.98;;;4.32;;
14369;SDS011;7268;50.792;0.252;2023-05-07T09:45:42;8.23;;;3.03;;
14369;SDS011;7268;50.792;0.252;2023-05-07T09:48:22;6.40;;;4.07;;
14369;SDS011;7268;50.792;0.252;2023-05-07T09:50:51;7.30;;;4.47;;
14369;SDS011;7268;50.792;0.252;2023-05-07T09:53:24;7.35;;;4.80;;
14369;SDS011;7268;50.792;0.252;2023-05-07T09:55:53;8.05;;;5.18;;
14369;SDS011;7268;50.792;0.252;2023-05-07T09:58:20;6.60;;;4.28;;
14369;SDS011;7268;50.792;0.252;2023-05-07T10:00:49;5.80;;;2.47;;
14369;SDS011;7268;50.792;0.252;2023-05-07T10:03:22;7.35;;;3.92;;
14369;SDS011;7268;50.792;0.252;2023-05-07T10:05:52;7.43;;;4.05;;
14369;SDS011;7268;50.792;0.252;2023-05-07T10:08:23;6.43;;;4.05;;
14369;SDS011;7268;50.792;0.252;2023-05-07T10:10:49;6.20;;;4.32;;
14369;SDS011;7268;50.792;0.252;2023-05-07T10:13:17;6.43;;;4.10;;
14369;SDS011;7268;50.792;0.252;2023-05-07T10:15:48;6.78;;;3.92;;
14369;SDS011;7268;50.792;0.252;2023-05-07T10:20:44;6.55;;;4.18;;
14369;SDS011;7268;50.792;0.252;2023-05-07T10:23:15;6.32;;;4.30;;
14369;SDS011;7268;50.792;0.252;2023-05-07T10:25:50;4.32;;;3.15;;
14369;SDS011;7268;50.792;0.252;2023-05-07T10:28:27;5.85;;;2.45;;
14369;SDS011;7268;50.792;0.252;2023-05-07T10:33:28;5.03;;;2.20;;
14369;SDS011;7268;50.792;0.252;2023-05-07T10:36:01;6.13;;;4.10;;
14369;SDS011;7268;50.792;0.252;2023-05-07T10:38:30;4.57;;;2.13;;
14369;SDS011;7268;50.792;0.252;2023-05-07T10:41:00;3.22;;;1.90;;
14369;SDS011;7268;50.792;0.252;2023-05-07T10:51:30;5.72;;;3.25;;
14369;SDS011;7268;50.792;0.252;2023-05-07T10:56:41;4.15;;;3.08;;
14369;SDS011;7268;50.792;0.252;2023-05-07T11:04:17;3.88;;;2.50;;
14369;SDS011;7268;50.792;0.252;2023-05-07T11:07:09;3.03;;;0.95;;
14369;SDS011;7268;50.792;0.252;2023-05-07T11:15:06;6.07;;;1.50;;
14369;SDS011;7268;50.792;0.252;2023-05-07T11:17:52;4.55;;;3.15;;
14369;SDS011;7268;50.792;0.252;2023-05-07T11:20:43;5.55;;;3.25;;
14369;SDS011;7268;50.792;0.252;2023-05-07T11:28:36;3.75;;;2.13;;
14369;SDS011;7268;50.792;0.252;2023-05-07T11:31:08;4.07;;;1.38;;
14369;SDS011;7268;50.792;0.252;2023-05-07T11:33:37;4.50;;;1.35;;
14369;SDS011;7268;50.792;0.252;2023-05-07T11:36:05;5.53;;;2.78;;
14369;SDS011;7268;50.792;0.252;2023-05-07T11:38:34;5.07;;;3.53;;
14369;SDS011;7268;50.792;0.252;2023-05-07T11:41:02;4.03;;;3.38;;
14369;SDS011;7268;50.792;0.252;2023-05-07T11:43:31;4.97;;;2.60;;
14369;SDS011;7268;50.792;0.252;2023-05-07T11:46:09;3.72;;;2.58;;
14369;SDS011;7268;50.792;0.252;2023-05-07T11:48:38;2.35;;;1.13;;
14369;SDS011;7268;50.792;0.252;2023-05-07T11:51:05;3.22;;;2.17;;
14369;SDS011;7268;50.792;0.252;2023-05-07T11:53:36;3.08;;;1.17;;
14369;SDS011;7268;50.792;0.252;2023-05-07T11:56:11;3.75;;;2.67;;
14369;SDS011;7268;50.792;0.252;2023-05-07T11:58:39;4.65;;;3.28;;
14369;SDS011;7268;50.792;0.252;2023-05-07T12:01:07;3.67;;;3.15;;
14369;SDS011;7268;50.792;0.252;2023-05-07T12:03:36;4.70;;;3.28;;
14369;SDS011;7268;50.792;0.252;2023-05-07T12:06:08;4.40;;;1.70;;
14369;SDS011;7268;50.792;0.252;2023-05-07T12:08:39;3.13;;;1.23;;
14369;SDS011;7268;50.792;0.252;2023-05-07T12:11:07;4.15;;;2.83;;
14369;SDS011;7268;50.792;0.252;2023-05-07T12:14:01;4.10;;;3.10;;
14369;SDS011;7268;50.792;0.252;2023-05-07T12:16:30;3.40;;;2.85;;
14369;SDS011;7268;50.792;0.252;2023-05-07T12:18:58;3.40;;;2.03;;
14369;SDS011;7268;50.792;0.252;2023-05-07T12:21:25;4.78;;;1.73;;
14369;SDS011;7268;50.792;0.252;2023-05-07T12:23:52;3.58;;;2.45;;
14369;SDS011;7268;50.792;0.252;2023-05-07T12:26:19;3.97;;;2.95;;
14369;SDS011;7268;50.792;0.252;2023-05-07T12:31:14;2.75;;;1.33;;
14369;SDS011;7268;50.792;0.252;2023-05-07T12:33:42;3.90;;;2.63;;
14369;SDS011;7268;50.792;0.252;2023-05-07T12:36:11;4.15;;;2.53;;
14369;SDS011;7268;50.792;0.252;2023-05-07T12:38:51;4.22;;;2.83;;
14369;SDS011;7268;50.792;0.252;2023-05-07T12:41:18;3.78;;;2.67;;
14369;SDS011;7268;50.792;0.252;2023-05-07T12:43:44;4.03;;;2.20;;
14369;SDS011;7268;50.792;0.252;2023-05-07T12:46:12;5.30;;;3.45;;
14369;SDS011;7268;50.792;0.252;2023-05-07T12:48:44;5.57;;;2.83;;
14369;SDS011;7268;50.792;0.252;2023-05-07T12:51:14;3.88;;;1.88;;
14369;SDS011;7268;50.792;0.252;2023-05-07T12:53:42;4.60;;;1.85;;
14369;SDS011;7268;50.792;0.252;2023-05-07T12:56:09;4.60;;;2.92;;
14369;SDS011;7268;50.792;0.252;2023-05-07T12:58:41;3.58;;;2.85;;
14369;SDS011;7268;50.792;0.252;2023-05-07T13:01:08;3.15;;;1.58;;
14369;SDS011;7268;50.792;0.252;2023-05-07T13:03:37;3.45;;;1.63;;
14369;SDS011;7268;50.792;0.252;2023-05-07T13:06:05;4.50;;;2.90;;
14369;SDS011;7268;50.792;0.252;2023-05-07T13:08:36;4.22;;;3.35;;
14369;SDS011;7268;50.792;0.252;2023-05-07T13:11:07;3.85;;;2.95;;
14369;SDS011;7268;50.792;0.252;2023-05-07T13:13:36;4.57;;;2.72;;
14369;SDS011;7268;50.792;0.252;2023-05-07T13:16:04;4.68;;;3.05;;
14369;SDS011;7268;50.792;0.252;2023-05-07T13:18:35;2.78;;;1.65;;
14369;SDS011;7268;50.792;0.252;2023-05-07T13:21:04;6.15;;;3.60;;
14369;SDS011;7268;50.792;0.252;2023-05-07T13:23:31;3.83;;;1.88;;
14369;SDS011;7268;50.792;0.252;2023-05-07T13:25:58;3.80;;;2.33;;
14369;SDS011;7268;50.792;0.252;2023-05-07T13:28:29;3.30;;;2.10;;
14369;SDS011;7268;50.792;0.252;2023-05-07T13:31:01;4.28;;;2.67;;
14369;SDS011;7268;50.792;0.252;2023-05-07T13:33:29;3.67;;;2.35;;
14369;SDS011;7268;50.792;0.252;2023-05-07T13:35:56;3.92;;;2.78;;
14369;SDS011;7268;50.792;0.252;2023-05-07T13:38:23;4.47;;;3.75;;
14369;SDS011;7268;50.792;0.252;2023-05-07T13:40:50;6.03;;;2.95;;
14369;SDS011;7268;50.792;0.252;2023-05-07T13:43:17;3.20;;;1.02;;
14369;SDS011;7268;50.792;0.252;2023-05-07T13:45:45;4.88;;;1.77;;
14369;SDS011;7268;50.792;0.252;2023-05-07T13:48:21;5.00;;;1.88;;
14369;SDS011;7268;50.792;0.252;2023-05-07T13:50:48;6.68;;;3.63;;
14369;SDS011;7268;50.792;0.252;2023-05-07T13:53:17;5.07;;;1.58;;
14369;SDS011;7268;50.792;0.252;2023-05-07T13:55:44;5.60;;;3.38;;
14369;SDS011;7268;50.792;0.252;2023-05-07T13:58:11;7.15;;;3.75;;
14369;SDS011;7268;50.792;0.252;2023-05-07T14:00:43;8.70;;;3.60;;
14369;SDS011;7268;50.792;0.252;2023-05-07T14:03:10;6.35;;;4.28;;
14369;SDS011;7268;50.792;0.252;2023-05-07T14:05:37;9.00;;;3.80;;
14369;SDS011;7268;50.792;0.252;2023-05-07T14:08:04;6.32;;;3.60;;
14369;SDS011;7268;50.792;0.252;2023-05-07T14:10:31;7.45;;;2.35;;
14369;SDS011;7268;50.792;0.252;2023-05-07T14:13:00;7.60;;;2.58;;
14369;SDS011;7268;50.792;0.252;2023-05-07T14:15:27;8.68;;;2.53;;
14369;SDS011;7268;50.792;0.252;2023-05-07T14:17:54;9.82;;;4.55;;
14369;SDS011;7268;50.792;0.252;2023-05-07T14:20:21;6.55;;;3.38;;
14369;SDS011;7268;50.792;0.252;2023-05-07T14:22:50;7.05;;;1.88;;
14369;SDS011;7268;50.792;0.252;2023-05-07T14:25:22;6.90;;;3.60;;
14369;SDS011;7268;50.792;0.252;2023-05-07T14:27:49;7.40;;;3.20;;
14369;SDS011;7268;50.792;0.252;2023-05-07T14:30:22;11.85;;;4.90;;
14369;SDS011;7268;50.792;0.252;2023-05-07T14:32:56;11.63;;;3.67;;
14369;SDS011;7268;50.792;0.252;2023-05-07T14:35:23;5.22;;;2.70;;
14369;SDS011;7268;50.792;0.252;2023-05-07T14:37:51;6.68;;;3.40;;
14369;SDS011;7268;50.792;0.252;2023-05-07T14:40:40;7.05;;;4.32;;
14369;SDS011;7268;50.792;0.252;2023-05-07T14:43:28;8.48;;;2.22;;
14369;SDS011;7268;50.792;0.252;2023-05-07T14:45:57;5.35;;;2.75;;
14369;SDS011;7268;50.792;0.252;2023-05-07T14:48:30;6.70;;;3.78;;
14369;SDS011;7268;50.792;0.252;2023-05-07T14:53:25;7.00;;;2.92;;
14369;SDS011;7268;50.792;0.252;2023-05-07T14:55:52;5.47;;;1.98;;
14369;SDS011;7268;50.792;0.252;2023-05-07T14:58:21;8.90;;;4.25;;
14369;SDS011;7268;50.792;0.252;2023-05-07T15:00:48;8.30;;;3.10;;
14369;SDS011;7268;50.792;0.252;2023-05-07T15:03:15;7.25;;;3.65;;
14369;SDS011;7268;50.792;0.252;2023-05-07T15:05:43;5.10;;;2.10;;
14369;SDS011;7268;50.792;0.252;2023-05-07T15:08:10;5.40;;;2.00;;
14369;SDS011;7268;50.792;0.252;2023-05-07T15:10:38;8.65;;;3.95;;
14369;SDS011;7268;50.792;0.252;2023-05-07T15:13:08;6.97;;;2.97;;
14369;SDS011;7268;50.792;0.252;2023-05-07T15:15:41;5.30;;;2.80;;
14369;SDS011;7268;50.792;0.252;2023-05-07T15:18:10;8.65;;;4.45;;
14369;SDS011;7268;50.792;0.252;2023-05-07T15:20:39;4.38;;;0.82;;
14369;SDS011;7268;50.792;0.252;2023-05-07T15:23:07;4.03;;;1.58;;
14369;SDS011;7268;50.792;0.252;2023-05-07T15:25:44;6.05;;;3.72;;
14369;SDS011;7268;50.792;0.252;2023-05-07T15:28:18;5.72;;;3.95;;
14369;SDS011;7268;50.792;0.252;2023-05-07T15:30:45;6.70;;;1.98;;
14369;SDS011;7268;50.792;0.252;2023-05-07T15:33:12;4.97;;;3.13;;
14369;SDS011;7268;50.792;0.252;2023-05-07T15:35:40;4.50;;;1.25;;
14369;SDS011;7268;50.792;0.252;2023-05-07T15:38:07;4.43;;;3.03;;
14369;SDS011;7268;50.792;0.252;2023-05-07T15:40:34;4.82;;;2.15;;
14369;SDS011;7268;50.792;0.252;2023-05-07T15:43:04;5.13;;;1.67;;
14369;SDS011;7268;50.792;0.252;2023-05-07T15:45:31;5.38;;;2.88;;
14369;SDS011;7268;50.792;0.252;2023-05-07T15:47:58;8.27;;;4.05;;
14369;SDS011;7268;50.792;0.252;2023-05-07T15:50:27;7.07;;;3.95;;
14369;SDS011;7268;50.792;0.252;2023-05-07T15:52:57;6.60;;;4.05;;
14369;SDS011;7268;50.792;0.252;2023-05-07T15:55:25;6.95;;;3.58;;
14369;SDS011;7268;50.792;0.252;2023-05-07T15:57:52;8.07;;;3.28;;
14369;SDS011;7268;50.792;0.252;2023-05-07T16:00:21;8.80;;;3.47;;
14369;SDS011;7268;50.792;0.252;2023-05-07T16:02:52;7.65;;;4.47;;
14369;SDS011;7268;50.792;0.252;2023-05-07T16:05:20;9.25;;;5.88;;
14369;SDS011;7268;50.792;0.252;2023-05-07T16:07:47;6.93;;;3.75;;
14369;SDS011;7268;50.792;0.252;2023-05-07T16:10:14;5.80;;;3.92;;
14369;SDS011;7268;50.792;0.252;2023-05-07T16:12:43;7.40;;;5.00;;
14369;SDS011;7268;50.792;0.252;2023-05-07T16:15:11;7.60;;;4.53;;
14369;SDS011;7268;50.792;0.252;2023-05-07T16:17:38;7.75;;;4.57;;
14369;SDS011;7268;50.792;0.252;2023-05-07T16:20:05;7.05;;;3.17;;
14369;SDS011;7268;50.792;0.252;2023-05-07T16:22:34;5.18;;;1.70;;
14369;SDS011;7268;50.792;0.252;2023-05-07T16:25:02;6.68;;;4.97;;
14369;SDS011;7268;50.792;0.252;2023-05-07T16:27:33;7.75;;;4.80;;
14369;SDS011;7268;50.792;0.252;2023-05-07T16:30:05;6.88;;;3.17;;
14369;SDS011;7268;50.792;0.252;2023-05-07T16:32:34;5.22;;;3.42;;
14369;SDS011;7268;50.792;0.252;2023-05-07T16:35:04;6.25;;;3.13;;
14369;SDS011;7268;50.792;0.252;2023-05-07T16:37:35;8.25;;;4.90;;
14369;SDS011;7268;50.792;0.252;2023-05-07T16:40:02;7.50;;;4.38;;
14369;SDS011;7268;50.792;0.252;2023-05-07T16:42:35;8.48;;;2.63;;
14369;SDS011;7268;50.792;0.252;2023-05-07T16:45:05;8.10;;;3.05;;
14369;SDS011;7268;50.792;0.252;2023-05-07T16:47:32;7.50;;;4.40;;
14369;SDS011;7268;50.792;0.252;2023-05-07T16:50:00;8.35;;;5.20;;